createdAt,value
2023-01-22T00:00:41.974Z,101.17
2023-01-22T00:03:08.856Z,86.73
2023-01-22T00:05:36.689Z,83.03
2023-01-22T00:08:03.620Z,72.00
2023-01-22T00:10:30.746Z,77.17
2023-01-22T00:12:57.568Z,73.00
2023-01-22T00:15:24.385Z,70.47
2023-01-22T00:17:51.206Z,72.83
2023-01-22T00:20:18.293Z,67.63
2023-01-22T00:22:45.183Z,72.33
2023-01-22T00:25:12.432Z,71.47
2023-01-22T00:27:40.574Z,71.43
2023-01-22T00:30:08.435Z,71.43
2023-01-22T00:32:35.257Z,76.23
2023-01-22T00:35:02.058Z,68.57
2023-01-22T00:37:28.895Z,73.13
2023-01-22T00:39:55.743Z,70.60
2023-01-22T00:42:22.764Z,72.60
2023-01-22T00:44:49.575Z,69.13
2023-01-22T00:47:16.391Z,74.23
2023-01-22T00:49:43.235Z,76.33
2023-01-22T00:52:10.057Z,74.07
2023-01-22T00:54:36.887Z,70.77
2023-01-22T00:57:03.762Z,72.17
2023-01-22T00:59:30.714Z,73.60
2023-01-22T01:01:57.573Z,74.77
2023-01-22T01:04:24.465Z,65.67
2023-01-22T01:06:51.261Z,65.87
2023-01-22T01:09:18.336Z,67.00
2023-01-22T01:11:45.377Z,67.13
2023-01-22T01:14:12.281Z,70.07
2023-01-22T01:16:39.135Z,62.33
2023-01-22T01:19:08.252Z,62.80
2023-01-22T01:21:35.852Z,70.73
2023-01-22T01:24:03.002Z,83.13
2023-01-22T01:26:30.039Z,81.77
2023-01-22T01:28:56.944Z,84.93
2023-01-22T01:31:26.171Z,87.53
2023-01-22T01:33:53.543Z,79.33
2023-01-22T01:36:45.920Z,92.27
2023-01-22T01:39:10.388Z,94.27
2023-01-22T01:41:37.196Z,77.93
2023-01-22T01:44:18.437Z,71.73
2023-01-22T01:46:52.617Z,70.90
2023-01-22T01:49:25.345Z,70.57
2023-01-22T01:51:55.756Z,66.43
2023-01-22T01:54:22.970Z,70.63
2023-01-22T01:56:54.824Z,67.30
2023-01-22T01:59:22.657Z,63.23
2023-01-22T02:01:54.349Z,67.70
2023-01-22T02:04:22.681Z,72.03
2023-01-22T02:06:49.584Z,70.77
2023-01-22T02:09:16.502Z,67.83
2023-01-22T02:11:44.196Z,70.03
2023-01-22T02:14:16.930Z,73.07
2023-01-22T02:16:44.169Z,71.27
2023-01-22T02:19:11.043Z,80.80
2023-01-22T02:21:42.285Z,77.83
2023-01-22T02:24:10.580Z,77.67
2023-01-22T02:26:38.503Z,83.10
2023-01-22T02:29:09.717Z,82.80
2023-01-22T02:31:38.071Z,81.93
2023-01-22T02:34:06.000Z,76.17
2023-01-22T02:36:35.219Z,83.30
2023-01-22T02:39:02.823Z,73.50
2023-01-22T02:41:29.722Z,78.63
2023-01-22T02:43:56.616Z,87.83
2023-01-22T02:46:25.391Z,82.30
2023-01-22T02:48:52.517Z,81.33
2023-01-22T02:51:19.380Z,72.73
2023-01-22T02:53:46.200Z,75.20
2023-01-22T02:56:13.016Z,73.87
2023-01-22T02:58:39.950Z,78.20
2023-01-22T03:01:22.946Z,82.17
2023-01-22T03:03:52.744Z,74.60
2023-01-22T03:06:22.013Z,77.10
2023-01-22T03:08:54.092Z,73.83
2023-01-22T03:11:21.231Z,77.07
2023-01-22T03:14:06.461Z,75.80
2023-01-22T03:16:52.556Z,76.83
2023-01-22T03:19:38.562Z,77.53
2023-01-22T03:22:05.925Z,81.03
2023-01-22T03:24:32.799Z,79.10
2023-01-22T03:26:59.692Z,81.07
2023-01-22T03:29:26.545Z,84.60
2023-01-22T03:31:53.438Z,78.70
2023-01-22T03:34:22.641Z,82.63
2023-01-22T03:36:49.711Z,83.03
2023-01-22T03:39:16.555Z,84.77
2023-01-22T03:41:43.385Z,82.77
2023-01-22T03:44:11.790Z,82.77
2023-01-22T03:46:40.355Z,84.50
2023-01-22T03:49:08.649Z,88.40
2023-01-22T03:51:35.855Z,79.63
2023-01-22T03:54:02.693Z,80.77
2023-01-22T03:56:29.556Z,82.53
2023-01-22T03:58:56.564Z,165.57
2023-01-22T04:01:26.867Z,197.67
2023-01-22T04:03:54.481Z,171.77
2023-01-22T04:06:23.083Z,130.10
2023-01-22T04:08:51.977Z,171.00
2023-01-22T04:11:18.878Z,235.67
2023-01-22T04:13:46.273Z,133.50
2023-01-22T04:16:14.429Z,96.93
2023-01-22T04:18:42.143Z,93.60
2023-01-22T04:21:09.587Z,87.13
2023-01-22T04:23:36.505Z,78.47
2023-01-22T04:26:03.580Z,81.40
2023-01-22T04:28:30.392Z,80.70
2023-01-22T04:30:57.388Z,86.87
2023-01-22T04:33:24.303Z,81.57
2023-01-22T04:35:53.049Z,77.13
2023-01-22T04:38:20.302Z,71.43
2023-01-22T04:40:47.154Z,76.60
2023-01-22T04:43:14.270Z,74.63
2023-01-22T04:45:41.116Z,75.40
2023-01-22T04:48:09.360Z,74.53
2023-01-22T04:50:36.233Z,68.70
2023-01-22T04:53:03.636Z,66.70
2023-01-22T04:55:30.765Z,67.63
2023-01-22T04:57:59.339Z,72.70
2023-01-22T05:00:27.572Z,65.20
2023-01-22T05:03:02.250Z,71.57
2023-01-22T05:05:29.755Z,72.23
2023-01-22T05:07:56.834Z,69.40
2023-01-22T05:10:24.274Z,100.90
2023-01-22T05:12:51.241Z,88.57
2023-01-22T05:15:24.556Z,76.37
2023-01-22T05:17:53.061Z,66.43
2023-01-22T05:20:21.060Z,62.17
2023-01-22T05:22:48.036Z,64.77
2023-01-22T05:25:14.917Z,87.80
2023-01-22T05:27:41.740Z,244.27
2023-01-22T05:30:10.041Z,302.30
2023-01-22T05:32:37.671Z,148.67
2023-01-22T05:35:05.589Z,97.63
2023-01-22T05:37:32.977Z,75.47
2023-01-22T05:39:59.851Z,68.60
2023-01-22T05:42:26.720Z,62.20
2023-01-22T05:44:53.591Z,55.67
2023-01-22T05:47:20.435Z,61.90
2023-01-22T05:49:47.230Z,51.73
2023-01-22T05:52:14.088Z,52.27
2023-01-22T05:54:40.907Z,50.80
2023-01-22T05:57:08.176Z,48.80
2023-01-22T05:59:35.189Z,50.17
2023-01-22T06:02:02.066Z,47.27
2023-01-22T06:04:29.210Z,46.73
2023-01-22T06:06:56.270Z,44.73
2023-01-22T06:09:23.455Z,40.70
2023-01-22T06:11:50.363Z,38.40
2023-01-22T06:14:17.287Z,38.73
2023-01-22T06:16:44.188Z,38.93
2023-01-22T06:19:11.358Z,37.73
2023-01-22T06:21:38.271Z,38.03
2023-01-22T06:24:05.297Z,36.27
2023-01-22T06:26:32.478Z,37.10
2023-01-22T06:28:59.440Z,35.13
2023-01-22T06:31:26.532Z,33.73
2023-01-22T06:33:53.717Z,32.17
2023-01-22T06:36:20.621Z,38.47
2023-01-22T06:38:47.455Z,32.97
2023-01-22T06:41:14.294Z,33.57
2023-01-22T06:43:41.180Z,29.37
2023-01-22T06:46:08.108Z,32.03
2023-01-22T06:48:35.074Z,36.83
2023-01-22T06:51:02.038Z,29.33
2023-01-22T06:53:29.160Z,31.57
2023-01-22T06:55:58.563Z,28.47
2023-01-22T06:58:25.437Z,28.97
2023-01-22T07:00:52.324Z,28.30
2023-01-22T07:03:19.368Z,29.90
2023-01-22T07:05:46.277Z,25.20
2023-01-22T07:08:15.698Z,29.63
2023-01-22T07:10:42.956Z,28.03
2023-01-22T07:13:10.388Z,32.13
2023-01-22T07:15:37.515Z,35.27
2023-01-22T07:18:04.543Z,35.23
2023-01-22T07:20:31.388Z,29.70
2023-01-22T07:23:00.175Z,29.23
2023-01-22T07:25:28.282Z,29.97
2023-01-22T07:28:02.575Z,26.23
2023-01-22T07:30:30.295Z,29.47
2023-01-22T07:33:04.046Z,30.37
2023-01-22T07:35:31.367Z,28.67
2023-01-22T07:37:59.937Z,30.43
2023-01-22T07:40:27.245Z,53.63
2023-01-22T07:42:55.097Z,118.63
2023-01-22T07:45:24.596Z,302.97
2023-01-22T07:47:58.975Z,189.20
2023-01-22T07:50:31.722Z,187.03
2023-01-22T07:53:00.801Z,101.97
2023-01-22T07:55:27.985Z,49.70
2023-01-22T07:58:01.329Z,33.97
2023-01-22T08:00:28.322Z,31.80
2023-01-22T08:02:55.188Z,28.33
2023-01-22T08:05:22.163Z,27.07
2023-01-22T08:07:49.125Z,26.03
2023-01-22T08:10:17.291Z,24.00
2023-01-22T08:12:46.335Z,23.63
2023-01-22T08:15:14.726Z,25.17
2023-01-22T08:17:42.115Z,25.23
2023-01-22T08:20:09.717Z,27.20
2023-01-22T08:22:36.713Z,27.70
2023-01-22T08:25:04.255Z,27.20
2023-01-22T08:27:31.179Z,29.70
2023-01-22T08:29:58.013Z,36.63
2023-01-22T08:32:25.026Z,38.47
2023-01-22T08:34:54.451Z,39.13
2023-01-22T08:37:22.336Z,38.37
2023-01-22T08:39:49.263Z,36.10
2023-01-22T08:42:16.720Z,51.63
2023-01-22T08:44:43.603Z,48.00
2023-01-22T08:47:11.688Z,54.37
2023-01-22T08:49:38.648Z,39.47
2023-01-22T08:52:05.886Z,75.00
2023-01-22T08:54:32.731Z,47.70
2023-01-22T08:56:59.661Z,40.73
2023-01-22T08:59:26.503Z,35.00
2023-01-22T09:01:53.451Z,53.33
2023-01-22T09:04:20.326Z,44.97
2023-01-22T09:06:47.368Z,41.73
2023-01-22T09:09:14.530Z,65.30
2023-01-22T09:11:41.446Z,98.30
2023-01-22T09:14:09.938Z,69.50
2023-01-22T09:16:37.314Z,69.17
2023-01-22T09:19:05.530Z,69.33
2023-01-22T09:21:33.964Z,44.60
2023-01-22T09:24:01.247Z,114.07
2023-01-22T09:26:28.094Z,174.93
2023-01-22T09:28:54.915Z,143.23
2023-01-22T09:31:21.803Z,648.43
2023-01-22T09:33:48.713Z,666.90
2023-01-22T09:36:16.762Z,221.23
2023-01-22T09:38:44.140Z,122.93
2023-01-22T09:41:16.801Z,167.47
2023-01-22T09:43:56.246Z,676.30
2023-01-22T09:46:48.960Z,106.53
2023-01-22T09:49:17.139Z,505.03
2023-01-22T09:51:54.981Z,380.37
2023-01-22T09:54:23.064Z,600.90
2023-01-22T09:56:52.385Z,408.87
2023-01-22T09:59:26.228Z,490.80
2023-01-22T10:01:58.737Z,565.80
2023-01-22T10:04:42.680Z,241.50
2023-01-22T10:07:32.240Z,186.43
2023-01-22T10:10:03.462Z,165.87
2023-01-22T10:12:30.392Z,335.33
2023-01-22T10:14:57.724Z,296.60
2023-01-22T10:17:31.238Z,181.73
2023-01-22T10:20:05.264Z,115.63
2023-01-22T10:22:32.095Z,87.60
2023-01-22T10:24:58.928Z,77.53
2023-01-22T10:27:39.492Z,80.70
2023-01-22T10:30:23.080Z,56.60
2023-01-22T10:33:05.557Z,46.50
2023-01-22T10:35:42.530Z,60.37
2023-01-22T10:38:22.555Z,27.67
2023-01-22T10:40:54.900Z,34.37
2023-01-22T10:43:21.865Z,33.00
2023-01-22T10:45:55.830Z,35.47
2023-01-22T10:48:23.760Z,22.87
2023-01-22T10:51:19.650Z,86.60
2023-01-22T10:53:50.163Z,48.60
2023-01-22T10:56:26.843Z,89.43
2023-01-22T10:58:55.063Z,73.30
2023-01-22T11:01:35.774Z,46.27
2023-01-22T11:04:33.484Z,35.57
2023-01-22T11:07:05.929Z,21.13
2023-01-22T11:09:44.688Z,23.63
2023-01-22T11:12:29.089Z,516.57
2023-01-22T11:15:03.120Z,159.87
2023-01-22T11:17:37.446Z,278.17
2023-01-22T11:20:16.389Z,70.63
2023-01-22T11:22:46.693Z,39.67
2023-01-22T11:25:13.660Z,30.20
2023-01-22T11:28:21.144Z,21.77
2023-01-22T11:31:07.097Z,17.90
2023-01-22T11:33:49.193Z,18.63
2023-01-22T11:36:23.929Z,17.37
2023-01-22T11:38:58.161Z,15.00
2023-01-22T11:41:52.706Z,15.20
2023-01-22T11:44:40.882Z,15.47
2023-01-22T11:47:39.761Z,14.97
2023-01-22T11:50:21.878Z,14.37
2023-01-22T11:53:01.507Z,16.77
2023-01-22T11:56:00.307Z,16.93
2023-01-22T11:58:39.102Z,15.43
2023-01-22T12:01:31.632Z,14.10
2023-01-22T12:04:17.544Z,16.60
2023-01-22T12:07:11.892Z,15.63
2023-01-22T12:09:51.750Z,15.57
2023-01-22T12:12:54.057Z,18.00
2023-01-22T12:15:53.049Z,26.40
2023-01-22T12:18:38.679Z,23.87
2023-01-22T12:21:18.033Z,32.73
2023-01-22T12:23:52.644Z,35.47
2023-01-22T12:26:39.740Z,63.70
2023-01-22T12:29:21.379Z,61.03
2023-01-22T12:31:58.559Z,40.73
2023-01-22T12:34:34.374Z,42.50
2023-01-22T12:37:03.089Z,36.17
2023-01-22T12:39:33.846Z,50.47
2023-01-22T12:42:00.614Z,44.53
2023-01-22T12:44:53.783Z,26.27
2023-01-22T12:47:36.446Z,27.40
2023-01-22T12:50:04.865Z,26.23
2023-01-22T12:52:39.550Z,27.03
2023-01-22T12:55:35.144Z,23.07
2023-01-22T12:58:02.662Z,21.73
2023-01-22T13:00:39.274Z,24.37
2023-01-22T13:03:32.007Z,20.33
2023-01-22T13:06:01.463Z,21.57
2023-01-22T13:08:39.156Z,20.70
2023-01-22T13:11:14.822Z,22.47
2023-01-22T13:13:48.353Z,25.23
2023-01-22T13:16:24.441Z,23.17
2023-01-22T13:18:53.906Z,25.80
2023-01-22T13:21:29.603Z,26.87
2023-01-22T13:24:05.858Z,29.57
2023-01-22T13:26:38.300Z,30.97
2023-01-22T13:29:22.506Z,37.20
2023-01-22T13:31:58.012Z,33.50
2023-01-22T13:34:25.798Z,37.73
2023-01-22T13:36:53.085Z,40.13
2023-01-22T13:39:31.198Z,40.17
2023-01-22T13:42:01.433Z,39.37
2023-01-22T13:44:39.104Z,42.87
2023-01-22T13:47:06.132Z,43.03
2023-01-22T13:49:40.656Z,40.13
2023-01-22T13:52:14.060Z,40.13
2023-01-22T13:54:48.744Z,38.10
2023-01-22T13:57:18.571Z,35.33
2023-01-22T13:59:59.921Z,42.27
2023-01-22T14:02:32.361Z,40.17
2023-01-22T14:04:59.720Z,39.10
2023-01-22T14:07:35.673Z,38.47
2023-01-22T14:10:35.382Z,43.70
2023-01-22T14:13:10.755Z,40.43
2023-01-22T14:15:39.108Z,44.07
2023-01-22T14:18:14.452Z,41.73
2023-01-22T14:20:43.257Z,45.17
2023-01-22T14:23:10.500Z,44.00
2023-01-22T14:25:38.995Z,43.23
2023-01-22T14:28:06.474Z,41.03
2023-01-22T14:30:33.980Z,40.17
2023-01-22T14:33:00.904Z,41.30
2023-01-22T14:35:28.230Z,44.70
2023-01-22T14:37:56.226Z,44.07
2023-01-22T14:40:25.159Z,43.93
2023-01-22T14:42:52.822Z,43.40
2023-01-22T14:45:20.795Z,47.83
2023-01-22T14:47:52.194Z,46.03
2023-01-22T14:50:20.485Z,47.97
2023-01-22T14:52:48.303Z,43.70
2023-01-22T14:55:15.373Z,48.50
2023-01-22T14:57:42.285Z,43.80
2023-01-22T15:00:11.707Z,44.17
2023-01-22T15:02:40.080Z,44.57
2023-01-22T15:05:07.572Z,38.10
2023-01-22T15:07:34.983Z,45.03
2023-01-22T15:10:03.470Z,45.13
2023-01-22T15:12:30.541Z,45.83
2023-01-22T15:14:57.470Z,44.73
2023-01-22T15:17:24.368Z,46.70
2023-01-22T15:19:51.480Z,49.53
2023-01-22T15:22:18.389Z,46.53
2023-01-22T15:24:45.529Z,44.43
2023-01-22T15:27:12.636Z,44.43
2023-01-22T15:29:39.637Z,42.87
2023-01-22T15:32:06.654Z,50.23
2023-01-22T15:34:33.613Z,47.50
2023-01-22T15:37:00.947Z,52.13
2023-01-22T15:39:27.940Z,45.73
2023-01-22T15:41:54.872Z,49.87
2023-01-22T15:44:22.032Z,50.73
2023-01-22T15:46:48.864Z,46.50
2023-01-22T15:49:18.653Z,48.53
2023-01-22T15:51:45.474Z,103.13
2023-01-22T15:54:17.735Z,89.80
2023-01-22T15:56:45.103Z,357.63
2023-01-22T15:59:12.546Z,207.27
2023-01-22T16:01:40.078Z,143.60
2023-01-22T16:04:07.450Z,693.43
2023-01-22T16:06:35.812Z,248.73
2023-01-22T16:09:04.520Z,121.43
2023-01-22T16:11:32.911Z,142.03
2023-01-22T16:14:00.434Z,571.80
2023-01-22T16:16:30.591Z,577.43
2023-01-22T16:18:58.837Z,704.70
2023-01-22T16:21:26.975Z,763.53
2023-01-22T16:23:57.757Z,657.87
2023-01-22T16:26:27.802Z,1003.03
2023-01-22T16:28:56.717Z,1255.67
2023-01-22T16:31:27.213Z,916.63
2023-01-22T16:33:59.449Z,830.57
2023-01-22T16:36:30.070Z,531.53
2023-01-22T16:38:56.979Z,751.93
2023-01-22T16:41:41.766Z,467.13
2023-01-22T16:44:16.190Z,632.63
2023-01-22T16:46:49.529Z,331.37
2023-01-22T16:49:24.863Z,379.20
2023-01-22T16:51:54.514Z,224.53
2023-01-22T16:54:30.351Z,369.23
2023-01-22T16:56:59.089Z,360.03
2023-01-22T16:59:27.223Z,416.37
2023-01-22T17:01:55.325Z,120.73
2023-01-22T17:04:22.178Z,95.83
2023-01-22T17:06:55.150Z,57.47
2023-01-22T17:09:24.538Z,65.60
2023-01-22T17:11:53.091Z,92.93
2023-01-22T17:14:22.336Z,76.60
2023-01-22T17:16:50.445Z,53.67
2023-01-22T17:19:20.715Z,45.43
2023-01-22T17:21:51.562Z,39.60
2023-01-22T17:24:18.767Z,43.40
2023-01-22T17:26:47.993Z,40.63
2023-01-22T17:29:15.270Z,38.37
2023-01-22T17:31:42.453Z,37.77
2023-01-22T17:34:11.118Z,39.13
2023-01-22T17:36:39.617Z,35.13
2023-01-22T17:39:07.503Z,35.90
2023-01-22T17:41:34.500Z,37.60
2023-01-22T17:44:01.549Z,36.00
2023-01-22T17:46:32.039Z,38.97
2023-01-22T17:49:01.205Z,39.27
2023-01-22T17:51:29.305Z,32.30
2023-01-22T17:53:59.230Z,41.17
2023-01-22T17:56:30.064Z,36.30
2023-01-22T17:58:59.817Z,43.77
2023-01-22T18:01:30.692Z,42.43
2023-01-22T18:04:03.053Z,47.17
2023-01-22T18:06:30.742Z,49.03
2023-01-22T18:08:58.392Z,46.47
2023-01-22T18:11:30.342Z,44.70
2023-01-22T18:13:59.813Z,42.17
2023-01-22T18:16:32.140Z,42.40
2023-01-22T18:19:00.865Z,41.97
2023-01-22T18:21:27.815Z,41.50
2023-01-22T18:23:54.740Z,43.00
2023-01-22T18:26:26.699Z,46.30
2023-01-22T18:28:56.919Z,44.90
2023-01-22T18:31:27.808Z,41.97
2023-01-22T18:33:57.413Z,48.87
2023-01-22T18:36:26.501Z,51.37
2023-01-22T18:38:53.902Z,58.10
2023-01-22T18:41:24.897Z,63.43
2023-01-22T18:43:56.728Z,62.47
2023-01-22T18:46:26.171Z,60.33
2023-01-22T18:48:56.514Z,58.80
2023-01-22T18:51:24.579Z,62.17
2023-01-22T18:53:52.049Z,67.20
2023-01-22T18:56:18.958Z,79.03
2023-01-22T18:58:46.375Z,67.40
2023-01-22T19:01:16.005Z,70.07
2023-01-22T19:03:45.612Z,72.87
2023-01-22T19:06:17.033Z,71.30
2023-01-22T19:08:45.071Z,60.30
2023-01-22T19:11:13.682Z,63.27
2023-01-22T19:13:41.950Z,57.43
2023-01-22T19:16:12.497Z,56.53
2023-01-22T19:18:44.017Z,51.23
2023-01-22T19:21:19.494Z,54.77
2023-01-22T19:23:49.295Z,76.03
2023-01-22T19:26:26.703Z,67.10
2023-01-22T19:28:56.268Z,132.10
2023-01-22T19:31:31.265Z,97.90
2023-01-22T19:33:58.931Z,59.73
2023-01-22T19:36:28.414Z,52.47
2023-01-22T19:38:59.751Z,54.03
2023-01-22T19:41:27.850Z,48.93
2023-01-22T19:43:57.553Z,45.70
2023-01-22T19:46:26.382Z,48.77
2023-01-22T19:48:54.204Z,44.73
2023-01-22T19:51:22.343Z,52.27
2023-01-22T19:53:49.529Z,53.17
2023-01-22T19:56:26.383Z,52.50
2023-01-22T19:58:54.454Z,53.20
2023-01-22T20:01:22.234Z,50.47
2023-01-22T20:03:51.959Z,48.17
2023-01-22T20:06:18.780Z,50.90
2023-01-22T20:08:46.265Z,53.97
2023-01-22T20:11:14.483Z,52.70
2023-01-22T20:13:43.436Z,48.87
2023-01-22T20:16:36.875Z,53.67
2023-01-22T20:19:04.217Z,56.30
2023-01-22T20:21:31.158Z,53.17
2023-01-22T20:23:58.035Z,55.53
2023-01-22T20:26:25.235Z,56.73
2023-01-22T20:28:52.176Z,54.87
2023-01-22T20:31:23.712Z,57.87
2023-01-22T20:33:55.984Z,54.73
2023-01-22T20:36:25.687Z,60.40
2023-01-22T20:38:53.690Z,55.37
2023-01-22T20:41:22.770Z,64.63
2023-01-22T20:43:50.562Z,64.73
2023-01-22T20:46:23.126Z,60.10
2023-01-22T20:48:50.705Z,66.07
2023-01-22T20:51:24.597Z,62.17
2023-01-22T20:53:53.576Z,59.83
2023-01-22T20:56:23.783Z,55.30
2023-01-22T20:58:58.694Z,54.30
2023-01-22T21:01:26.622Z,59.27
2023-01-22T21:03:54.914Z,62.67
2023-01-22T21:06:22.183Z,57.80
2023-01-22T21:08:51.761Z,59.17
2023-01-22T21:11:20.575Z,57.27
2023-01-22T21:13:49.116Z,60.80
2023-01-22T21:16:26.479Z,60.97
2023-01-22T21:18:55.830Z,62.53
2023-01-22T21:21:23.126Z,67.43
2023-01-22T21:23:52.565Z,62.83
2023-01-22T21:26:24.893Z,66.53
2023-01-22T21:28:58.460Z,68.87
2023-01-22T21:31:26.748Z,71.90
2023-01-22T21:34:02.815Z,73.20
2023-01-22T21:36:34.283Z,59.90
2023-01-22T21:39:01.541Z,65.53
2023-01-22T21:41:28.409Z,72.30
2023-01-22T21:44:14.018Z,66.67
2023-01-22T21:46:43.423Z,72.40
2023-01-22T21:49:20.305Z,67.47
2023-01-22T21:51:49.332Z,62.37
2023-01-22T21:54:20.268Z,63.73
2023-01-22T21:56:47.364Z,54.70
2023-01-22T21:59:14.622Z,65.07
2023-01-22T22:01:41.449Z,63.97
2023-01-22T22:04:09.901Z,62.27
2023-01-22T22:06:37.555Z,72.77
2023-01-22T22:09:08.480Z,111.63
2023-01-22T22:11:35.351Z,98.97
2023-01-22T22:14:02.294Z,95.10
2023-01-22T22:16:29.180Z,90.63
2023-01-22T22:18:56.837Z,70.43
2023-01-22T22:21:23.757Z,58.27
2023-01-22T22:23:50.705Z,72.43
2023-01-22T22:26:18.316Z,82.80
2023-01-22T22:28:45.287Z,73.33
2023-01-22T22:31:14.963Z,64.43
2023-01-22T22:33:44.077Z,63.00
2023-01-22T22:36:13.098Z,66.73
2023-01-22T22:38:40.002Z,65.20
2023-01-22T22:41:10.800Z,62.90
2023-01-22T22:43:41.100Z,86.57
2023-01-22T22:46:12.013Z,87.47
2023-01-22T22:48:38.900Z,91.27
2023-01-22T22:51:12.725Z,99.17
2023-01-22T22:53:40.783Z,109.07
2023-01-22T22:56:08.981Z,123.00
2023-01-22T22:58:36.270Z,104.20
2023-01-22T23:01:10.748Z,80.50
2023-01-22T23:03:37.855Z,72.20
2023-01-22T23:06:08.579Z,72.00
2023-01-22T23:08:37.143Z,66.20
2023-01-22T23:11:05.772Z,73.97
2023-01-22T23:13:33.693Z,81.00
2023-01-22T23:16:02.234Z,77.47
2023-01-22T23:18:29.741Z,71.10
2023-01-22T23:20:56.623Z,82.73
2023-01-22T23:23:23.748Z,79.90
2023-01-22T23:25:50.620Z,79.80
2023-01-22T23:28:17.513Z,66.00
2023-01-22T23:30:44.420Z,74.03
2023-01-22T23:33:11.413Z,66.67
2023-01-22T23:35:38.246Z,71.87
2023-01-22T23:38:05.075Z,70.70
2023-01-22T23:40:33.760Z,78.87
2023-01-22T23:43:02.067Z,88.83
2023-01-22T23:45:29.282Z,94.87
2023-01-22T23:47:56.157Z,90.80
2023-01-22T23:50:23.034Z,92.43
2023-01-22T23:52:49.877Z,94.03
2023-01-22T23:55:16.789Z,100.70
2023-01-22T23:57:43.628Z,99.77
